sensor_id;sensor_type;location;lat;lon;timestamp;P1;durP1;ratioP1;P2;durP2;ratioP2
15699;SDS011;7950;42.744;23.174;2022-10-30T00:00:16;8.93;;;7.97;;
15699;SDS011;7950;42.744;23.174;2022-10-30T00:02:45;9.37;;;7.57;;
15699;SDS011;7950;42.744;23.174;2022-10-30T00:05:13;9.23;;;7.87;;
15699;SDS011;7950;42.744;23.174;2022-10-30T00:07:43;11.37;;;9.00;;
15699;SDS011;7950;42.744;23.174;2022-10-30T00:10:11;9.40;;;8.43;;
15699;SDS011;7950;42.744;23.174;2022-10-30T00:12:41;9.57;;;8.57;;
15699;SDS011;7950;42.744;23.174;2022-10-30T00:15:13;10.27;;;9.17;;
15699;SDS011;7950;42.744;23.174;2022-10-30T00:17:42;9.63;;;8.60;;
15699;SDS011;7950;42.744;23.174;2022-10-30T00:20:13;12.73;;;8.57;;
15699;SDS011;7950;42.744;23.174;2022-10-30T00:22:42;9.60;;;8.60;;
15699;SDS011;7950;42.744;23.174;2022-10-30T00:25:10;9.37;;;8.00;;
15699;SDS011;7950;42.744;23.174;2022-10-30T00:27:39;9.60;;;8.60;;
15699;SDS011;7950;42.744;23.174;2022-10-30T00:30:09;12.67;;;9.87;;
15699;SDS011;7950;42.744;23.174;2022-10-30T00:32:40;11.33;;;9.40;;
15699;SDS011;7950;42.744;23.174;2022-10-30T00:35:09;12.07;;;9.47;;
15699;SDS011;7950;42.744;23.174;2022-10-30T00:37:38;10.10;;;9.00;;
15699;SDS011;7950;42.744;23.174;2022-10-30T00:40:06;8.77;;;7.70;;
15699;SDS011;7950;42.744;23.174;2022-10-30T00:42:41;10.03;;;8.47;;
15699;SDS011;7950;42.744;23.174;2022-10-30T00:45:11;12.03;;;8.67;;
15699;SDS011;7950;42.744;23.174;2022-10-30T00:47:43;9.43;;;8.40;;
15699;SDS011;7950;42.744;23.174;2022-10-30T00:50:18;10.93;;;7.90;;
15699;SDS011;7950;42.744;23.174;2022-10-30T00:52:59;7.87;;;7.00;;
15699;SDS011;7950;42.744;23.174;2022-10-30T00:55:31;7.93;;;6.93;;
15699;SDS011;7950;42.744;23.174;2022-10-30T00:58:13;8.73;;;7.83;;
15699;SDS011;7950;42.744;23.174;2022-10-30T01:00:49;8.57;;;7.70;;
15699;SDS011;7950;42.744;23.174;2022-10-30T01:03:21;10.50;;;8.50;;
15699;SDS011;7950;42.744;23.174;2022-10-30T01:08:46;9.03;;;7.73;;
15699;SDS011;7950;42.744;23.174;2022-10-30T01:11:24;11.10;;;8.00;;
15699;SDS011;7950;42.744;23.174;2022-10-30T01:13:52;9.67;;;8.17;;
15699;SDS011;7950;42.744;23.174;2022-10-30T01:16:45;9.77;;;8.77;;
15699;SDS011;7950;42.744;23.174;2022-10-30T01:19:37;10.87;;;9.47;;
15699;SDS011;7950;42.744;23.174;2022-10-30T01:22:18;11.07;;;9.40;;
15699;SDS011;7950;42.744;23.174;2022-10-30T01:25:11;9.17;;;7.60;;
15699;SDS011;7950;42.744;23.174;2022-10-30T01:27:58;8.57;;;7.67;;
15699;SDS011;7950;42.744;23.174;2022-10-30T01:30:46;8.57;;;7.77;;
15699;SDS011;7950;42.744;23.174;2022-10-30T01:33:36;8.10;;;7.30;;
15699;SDS011;7950;42.744;23.174;2022-10-30T01:36:35;10.00;;;7.80;;
15699;SDS011;7950;42.744;23.174;2022-10-30T01:42:07;10.13;;;8.27;;
15699;SDS011;7950;42.744;23.174;2022-10-30T01:44:37;9.70;;;8.40;;
15699;SDS011;7950;42.744;23.174;2022-10-30T01:47:10;11.00;;;8.27;;
15699;SDS011;7950;42.744;23.174;2022-10-30T01:50:07;13.03;;;8.77;;
15699;SDS011;7950;42.744;23.174;2022-10-30T01:52:48;10.80;;;8.63;;
15699;SDS011;7950;42.744;23.174;2022-10-30T01:55:32;10.07;;;8.60;;
15699;SDS011;7950;42.744;23.174;2022-10-30T01:58:11;9.20;;;8.30;;
15699;SDS011;7950;42.744;23.174;2022-10-30T02:00:49;9.57;;;8.57;;
15699;SDS011;7950;42.744;23.174;2022-10-30T02:03:23;13.30;;;8.50;;
15699;SDS011;7950;42.744;23.174;2022-10-30T02:05:54;11.77;;;9.20;;
15699;SDS011;7950;42.744;23.174;2022-10-30T02:08:22;10.57;;;9.23;;
15699;SDS011;7950;42.744;23.174;2022-10-30T02:10:51;11.27;;;10.13;;
15699;SDS011;7950;42.744;23.174;2022-10-30T02:13:21;11.50;;;8.90;;
15699;SDS011;7950;42.744;23.174;2022-10-30T02:15:50;11.60;;;9.30;;
15699;SDS011;7950;42.744;23.174;2022-10-30T02:18:19;11.53;;;9.63;;
15699;SDS011;7950;42.744;23.174;2022-10-30T02:20:49;12.80;;;10.13;;
15699;SDS011;7950;42.744;23.174;2022-10-30T02:23:18;15.63;;;10.83;;
15699;SDS011;7950;42.744;23.174;2022-10-30T02:25:47;12.33;;;10.57;;
15699;SDS011;7950;42.744;23.174;2022-10-30T02:28:16;11.43;;;9.80;;
15699;SDS011;7950;42.744;23.174;2022-10-30T02:30:44;13.90;;;10.07;;
15699;SDS011;7950;42.744;23.174;2022-10-30T02:33:13;11.13;;;9.37;;
15699;SDS011;7950;42.744;23.174;2022-10-30T02:35:53;10.13;;;9.13;;
15699;SDS011;7950;42.744;23.174;2022-10-30T02:38:22;10.20;;;8.63;;
15699;SDS011;7950;42.744;23.174;2022-10-30T02:40:50;11.90;;;9.60;;
15699;SDS011;7950;42.744;23.174;2022-10-30T02:43:19;11.63;;;10.33;;
15699;SDS011;7950;42.744;23.174;2022-10-30T02:45:49;11.13;;;9.97;;
15699;SDS011;7950;42.744;23.174;2022-10-30T02:48:18;11.30;;;10.03;;
15699;SDS011;7950;42.744;23.174;2022-10-30T02:50:46;12.07;;;10.73;;
15699;SDS011;7950;42.744;23.174;2022-10-30T02:53:16;13.53;;;10.63;;
15699;SDS011;7950;42.744;23.174;2022-10-30T02:55:44;12.73;;;11.23;;
15699;SDS011;7950;42.744;23.174;2022-10-30T02:58:13;12.97;;;10.43;;
15699;SDS011;7950;42.744;23.174;2022-10-30T03:00:41;13.93;;;11.67;;
15699;SDS011;7950;42.744;23.174;2022-10-30T03:03:10;14.47;;;11.17;;
15699;SDS011;7950;42.744;23.174;2022-10-30T03:05:38;12.50;;;11.13;;
15699;SDS011;7950;42.744;23.174;2022-10-30T03:08:07;13.60;;;10.80;;
15699;SDS011;7950;42.744;23.174;2022-10-30T03:10:37;11.00;;;9.23;;
15699;SDS011;7950;42.744;23.174;2022-10-30T03:13:05;10.43;;;9.33;;
15699;SDS011;7950;42.744;23.174;2022-10-30T03:18:28;13.67;;;10.27;;
15699;SDS011;7950;42.744;23.174;2022-10-30T03:20:57;11.10;;;10.00;;
15699;SDS011;7950;42.744;23.174;2022-10-30T03:23:27;11.43;;;10.20;;
15699;SDS011;7950;42.744;23.174;2022-10-30T03:25:57;12.37;;;10.20;;
15699;SDS011;7950;42.744;23.174;2022-10-30T03:28:27;12.77;;;11.17;;
15699;SDS011;7950;42.744;23.174;2022-10-30T03:30:57;13.53;;;10.27;;
15699;SDS011;7950;42.744;23.174;2022-10-30T03:33:27;13.37;;;10.30;;
15699;SDS011;7950;42.744;23.174;2022-10-30T03:35:57;12.23;;;9.53;;
15699;SDS011;7950;42.744;23.174;2022-10-30T03:38:26;13.47;;;10.90;;
15699;SDS011;7950;42.744;23.174;2022-10-30T03:40:55;12.27;;;9.77;;
15699;SDS011;7950;42.744;23.174;2022-10-30T03:43:25;12.07;;;9.90;;
15699;SDS011;7950;42.744;23.174;2022-10-30T03:45:54;10.77;;;9.67;;
15699;SDS011;7950;42.744;23.174;2022-10-30T03:48:24;11.60;;;9.23;;
15699;SDS011;7950;42.744;23.174;2022-10-30T03:50:55;12.67;;;10.40;;
15699;SDS011;7950;42.744;23.174;2022-10-30T03:53:35;12.40;;;9.13;;
15699;SDS011;7950;42.744;23.174;2022-10-30T03:56:05;11.60;;;9.37;;
15699;SDS011;7950;42.744;23.174;2022-10-30T03:58:36;12.83;;;9.67;;
15699;SDS011;7950;42.744;23.174;2022-10-30T04:03:58;14.27;;;10.27;;
15699;SDS011;7950;42.744;23.174;2022-10-30T04:06:26;13.57;;;9.83;;
15699;SDS011;7950;42.744;23.174;2022-10-30T04:08:55;11.23;;;9.17;;
15699;SDS011;7950;42.744;23.174;2022-10-30T04:11:25;10.67;;;8.73;;
15699;SDS011;7950;42.744;23.174;2022-10-30T04:13:53;10.67;;;9.10;;
15699;SDS011;7950;42.744;23.174;2022-10-30T04:16:22;10.87;;;9.77;;
15699;SDS011;7950;42.744;23.174;2022-10-30T04:18:50;10.43;;;9.33;;
15699;SDS011;7950;42.744;23.174;2022-10-30T04:21:18;11.73;;;10.00;;
15699;SDS011;7950;42.744;23.174;2022-10-30T04:23:47;11.47;;;9.77;;
15699;SDS011;7950;42.744;23.174;2022-10-30T04:26:16;11.97;;;9.43;;
15699;SDS011;7950;42.744;23.174;2022-10-30T04:28:47;10.07;;;9.17;;
15699;SDS011;7950;42.744;23.174;2022-10-30T04:31:16;11.20;;;9.30;;
15699;SDS011;7950;42.744;23.174;2022-10-30T04:33:44;9.33;;;8.33;;
15699;SDS011;7950;42.744;23.174;2022-10-30T04:36:12;9.53;;;8.63;;
15699;SDS011;7950;42.744;23.174;2022-10-30T04:41:37;11.40;;;9.00;;
15699;SDS011;7950;42.744;23.174;2022-10-30T04:44:07;10.63;;;9.07;;
15699;SDS011;7950;42.744;23.174;2022-10-30T04:46:36;8.97;;;8.07;;
15699;SDS011;7950;42.744;23.174;2022-10-30T04:49:04;9.67;;;7.77;;
15699;SDS011;7950;42.744;23.174;2022-10-30T04:51:33;9.37;;;8.40;;
15699;SDS011;7950;42.744;23.174;2022-10-30T04:54:01;11.20;;;8.73;;
15699;SDS011;7950;42.744;23.174;2022-10-30T04:56:30;10.93;;;9.10;;
15699;SDS011;7950;42.744;23.174;2022-10-30T04:58:59;11.97;;;9.50;;
15699;SDS011;7950;42.744;23.174;2022-10-30T05:01:29;8.87;;;7.77;;
15699;SDS011;7950;42.744;23.174;2022-10-30T05:03:58;10.03;;;9.00;;
15699;SDS011;7950;42.744;23.174;2022-10-30T05:06:27;9.70;;;8.10;;
15699;SDS011;7950;42.744;23.174;2022-10-30T05:08:57;9.40;;;8.40;;
15699;SDS011;7950;42.744;23.174;2022-10-30T05:11:26;10.63;;;8.97;;
15699;SDS011;7950;42.744;23.174;2022-10-30T05:13:54;11.37;;;9.03;;
15699;SDS011;7950;42.744;23.174;2022-10-30T05:16:23;9.20;;;8.30;;
15699;SDS011;7950;42.744;23.174;2022-10-30T05:18:53;10.60;;;8.93;;
15699;SDS011;7950;42.744;23.174;2022-10-30T05:21:21;10.67;;;9.17;;
15699;SDS011;7950;42.744;23.174;2022-10-30T05:23:50;11.23;;;8.67;;
15699;SDS011;7950;42.744;23.174;2022-10-30T05:26:18;11.77;;;8.33;;
15699;SDS011;7950;42.744;23.174;2022-10-30T05:28:47;11.63;;;8.90;;
15699;SDS011;7950;42.744;23.174;2022-10-30T05:31:15;9.83;;;8.83;;
15699;SDS011;7950;42.744;23.174;2022-10-30T05:33:43;8.47;;;7.57;;
15699;SDS011;7950;42.744;23.174;2022-10-30T05:36:13;10.27;;;8.00;;
15699;SDS011;7950;42.744;23.174;2022-10-30T05:38:42;8.97;;;8.07;;
15699;SDS011;7950;42.744;23.174;2022-10-30T05:41:11;9.70;;;7.47;;
15699;SDS011;7950;42.744;23.174;2022-10-30T05:43:40;9.67;;;8.70;;
15699;SDS011;7950;42.744;23.174;2022-10-30T05:46:08;9.63;;;8.33;;
15699;SDS011;7950;42.744;23.174;2022-10-30T05:48:37;9.30;;;8.40;;
15699;SDS011;7950;42.744;23.174;2022-10-30T05:51:05;9.87;;;8.13;;
15699;SDS011;7950;42.744;23.174;2022-10-30T05:53:35;10.07;;;8.63;;
15699;SDS011;7950;42.744;23.174;2022-10-30T05:56:04;10.87;;;7.80;;
15699;SDS011;7950;42.744;23.174;2022-10-30T05:58:33;12.63;;;8.43;;
15699;SDS011;7950;42.744;23.174;2022-10-30T06:01:03;9.70;;;7.60;;
15699;SDS011;7950;42.744;23.174;2022-10-30T06:03:33;9.07;;;8.13;;
15699;SDS011;7950;42.744;23.174;2022-10-30T06:06:02;9.20;;;7.90;;
15699;SDS011;7950;42.744;23.174;2022-10-30T06:08:30;9.13;;;8.10;;
15699;SDS011;7950;42.744;23.174;2022-10-30T06:11:00;8.43;;;7.63;;
15699;SDS011;7950;42.744;23.174;2022-10-30T06:13:29;8.97;;;7.90;;
15699;SDS011;7950;42.744;23.174;2022-10-30T06:15:57;12.60;;;8.60;;
15699;SDS011;7950;42.744;23.174;2022-10-30T06:18:26;9.00;;;8.10;;
15699;SDS011;7950;42.744;23.174;2022-10-30T06:20:55;10.90;;;8.77;;
15699;SDS011;7950;42.744;23.174;2022-10-30T06:23:23;10.03;;;8.07;;
15699;SDS011;7950;42.744;23.174;2022-10-30T06:25:52;12.20;;;8.00;;
15699;SDS011;7950;42.744;23.174;2022-10-30T06:28:21;10.83;;;8.63;;
15699;SDS011;7950;42.744;23.174;2022-10-30T06:30:52;17.17;;;12.57;;
15699;SDS011;7950;42.744;23.174;2022-10-30T06:33:21;17.20;;;11.97;;
15699;SDS011;7950;42.744;23.174;2022-10-30T06:35:49;15.73;;;12.03;;
15699;SDS011;7950;42.744;23.174;2022-10-30T06:38:18;11.83;;;9.97;;
15699;SDS011;7950;42.744;23.174;2022-10-30T06:40:47;12.77;;;11.20;;
15699;SDS011;7950;42.744;23.174;2022-10-30T06:43:15;11.97;;;10.30;;
15699;SDS011;7950;42.744;23.174;2022-10-30T06:45:50;18.70;;;10.20;;
15699;SDS011;7950;42.744;23.174;2022-10-30T06:48:18;13.00;;;10.20;;
15699;SDS011;7950;42.744;23.174;2022-10-30T06:50:52;14.53;;;9.83;;
15699;SDS011;7950;42.744;23.174;2022-10-30T06:53:21;14.93;;;10.70;;
15699;SDS011;7950;42.744;23.174;2022-10-30T06:55:54;12.27;;;10.33;;
15699;SDS011;7950;42.744;23.174;2022-10-30T06:58:24;12.77;;;9.50;;
15699;SDS011;7950;42.744;23.174;2022-10-30T07:00:57;11.40;;;9.87;;
15699;SDS011;7950;42.744;23.174;2022-10-30T07:03:27;10.57;;;9.43;;
15699;SDS011;7950;42.744;23.174;2022-10-30T07:05:55;10.90;;;9.80;;
15699;SDS011;7950;42.744;23.174;2022-10-30T07:08:24;11.47;;;9.10;;
15699;SDS011;7950;42.744;23.174;2022-10-30T07:10:54;11.97;;;9.33;;
15699;SDS011;7950;42.744;23.174;2022-10-30T07:13:41;13.13;;;10.63;;
15699;SDS011;7950;42.744;23.174;2022-10-30T07:16:11;9.93;;;8.93;;
15699;SDS011;7950;42.744;23.174;2022-10-30T07:18:40;13.40;;;9.40;;
15699;SDS011;7950;42.744;23.174;2022-10-30T07:21:09;9.70;;;7.83;;
15699;SDS011;7950;42.744;23.174;2022-10-30T07:23:37;12.27;;;8.30;;
15699;SDS011;7950;42.744;23.174;2022-10-30T07:26:06;10.40;;;8.00;;
15699;SDS011;7950;42.744;23.174;2022-10-30T07:28:34;11.17;;;8.50;;
15699;SDS011;7950;42.744;23.174;2022-10-30T07:31:03;10.27;;;9.20;;
15699;SDS011;7950;42.744;23.174;2022-10-30T07:33:33;11.03;;;9.10;;
15699;SDS011;7950;42.744;23.174;2022-10-30T07:36:01;10.17;;;8.63;;
15699;SDS011;7950;42.744;23.174;2022-10-30T07:38:30;9.70;;;8.70;;
15699;SDS011;7950;42.744;23.174;2022-10-30T07:40:59;11.87;;;9.17;;
15699;SDS011;7950;42.744;23.174;2022-10-30T07:43:27;11.97;;;8.73;;
15699;SDS011;7950;42.744;23.174;2022-10-30T07:45:56;12.10;;;8.67;;
15699;SDS011;7950;42.744;23.174;2022-10-30T07:48:24;9.00;;;8.10;;
15699;SDS011;7950;42.744;23.174;2022-10-30T07:50:54;8.97;;;7.73;;
15699;SDS011;7950;42.744;23.174;2022-10-30T07:53:22;15.87;;;11.10;;
15699;SDS011;7950;42.744;23.174;2022-10-30T07:55:51;11.37;;;9.37;;
15699;SDS011;7950;42.744;23.174;2022-10-30T07:58:20;12.30;;;8.30;;
15699;SDS011;7950;42.744;23.174;2022-10-30T08:00:48;11.07;;;8.57;;
15699;SDS011;7950;42.744;23.174;2022-10-30T08:03:17;14.47;;;9.70;;
15699;SDS011;7950;42.744;23.174;2022-10-30T08:05:45;10.10;;;8.07;;
15699;SDS011;7950;42.744;23.174;2022-10-30T08:08:15;10.23;;;8.40;;
15699;SDS011;7950;42.744;23.174;2022-10-30T08:10:44;12.83;;;8.17;;
15699;SDS011;7950;42.744;23.174;2022-10-30T08:13:12;12.50;;;8.50;;
15699;SDS011;7950;42.744;23.174;2022-10-30T08:15:45;12.03;;;8.37;;
15699;SDS011;7950;42.744;23.174;2022-10-30T08:18:14;14.27;;;9.07;;
15699;SDS011;7950;42.744;23.174;2022-10-30T08:20:46;9.20;;;8.13;;
15699;SDS011;7950;42.744;23.174;2022-10-30T08:23:18;10.67;;;7.80;;
15699;SDS011;7950;42.744;23.174;2022-10-30T08:25:52;12.67;;;8.03;;
15699;SDS011;7950;42.744;23.174;2022-10-30T08:28:25;10.87;;;7.87;;
15699;SDS011;7950;42.744;23.174;2022-10-30T08:30:58;9.53;;;7.90;;
15699;SDS011;7950;42.744;23.174;2022-10-30T08:33:28;10.60;;;8.50;;
15699;SDS011;7950;42.744;23.174;2022-10-30T08:35:57;9.10;;;7.77;;
15699;SDS011;7950;42.744;23.174;2022-10-30T08:41:21;10.60;;;8.73;;
15699;SDS011;7950;42.744;23.174;2022-10-30T08:43:50;10.17;;;9.10;;
15699;SDS011;7950;42.744;23.174;2022-10-30T08:46:18;10.33;;;9.17;;
15699;SDS011;7950;42.744;23.174;2022-10-30T08:48:47;15.07;;;9.10;;
15699;SDS011;7950;42.744;23.174;2022-10-30T08:51:15;12.33;;;9.43;;
15699;SDS011;7950;42.744;23.174;2022-10-30T08:53:47;9.77;;;8.00;;
15699;SDS011;7950;42.744;23.174;2022-10-30T08:56:32;11.43;;;8.07;;
15699;SDS011;7950;42.744;23.174;2022-10-30T08:59:01;11.03;;;8.40;;
15699;SDS011;7950;42.744;23.174;2022-10-30T09:01:29;10.17;;;8.27;;
15699;SDS011;7950;42.744;23.174;2022-10-30T09:03:58;12.30;;;8.07;;
15699;SDS011;7950;42.744;23.174;2022-10-30T09:06:26;7.70;;;6.57;;
15699;SDS011;7950;42.744;23.174;2022-10-30T09:08:56;8.90;;;6.80;;
15699;SDS011;7950;42.744;23.174;2022-10-30T09:11:25;14.43;;;8.67;;
15699;SDS011;7950;42.744;23.174;2022-10-30T09:13:55;9.50;;;7.40;;
15699;SDS011;7950;42.744;23.174;2022-10-30T09:16:25;12.53;;;9.90;;
15699;SDS011;7950;42.744;23.174;2022-10-30T09:18:53;12.57;;;8.53;;
15699;SDS011;7950;42.744;23.174;2022-10-30T09:21:21;11.77;;;7.77;;
15699;SDS011;7950;42.744;23.174;2022-10-30T09:23:50;9.13;;;7.00;;
15699;SDS011;7950;42.744;23.174;2022-10-30T09:26:18;11.40;;;7.40;;
15699;SDS011;7950;42.744;23.174;2022-10-30T09:28:47;8.20;;;7.17;;
15699;SDS011;7950;42.744;23.174;2022-10-30T09:31:17;8.17;;;6.63;;
15699;SDS011;7950;42.744;23.174;2022-10-30T09:33:45;8.60;;;6.90;;
15699;SDS011;7950;42.744;23.174;2022-10-30T09:36:14;9.17;;;6.83;;
15699;SDS011;7950;42.744;23.174;2022-10-30T09:38:47;13.07;;;7.10;;
15699;SDS011;7950;42.744;23.174;2022-10-30T09:41:29;10.03;;;6.80;;
15699;SDS011;7950;42.744;23.174;2022-10-30T09:44:22;8.57;;;6.07;;
15699;SDS011;7950;42.744;23.174;2022-10-30T09:47:09;8.23;;;7.13;;
15699;SDS011;7950;42.744;23.174;2022-10-30T09:49:52;7.30;;;5.73;;
15699;SDS011;7950;42.744;23.174;2022-10-30T09:52:41;9.13;;;6.23;;
15699;SDS011;7950;42.744;23.174;2022-10-30T09:55:26;7.93;;;6.13;;
15699;SDS011;7950;42.744;23.174;2022-10-30T09:58:05;7.73;;;5.90;;
15699;SDS011;7950;42.744;23.174;2022-10-30T10:00:47;9.60;;;6.27;;
15699;SDS011;7950;42.744;23.174;2022-10-30T10:03:28;9.80;;;5.50;;
15699;SDS011;7950;42.744;23.174;2022-10-30T10:06:29;6.23;;;5.63;;
15699;SDS011;7950;42.744;23.174;2022-10-30T10:09:01;7.97;;;6.10;;
15699;SDS011;7950;42.744;23.174;2022-10-30T10:11:39;7.23;;;5.23;;
15699;SDS011;7950;42.744;23.174;2022-10-30T10:14:14;6.93;;;5.00;;
15699;SDS011;7950;42.744;23.174;2022-10-30T10:16:51;7.70;;;5.30;;
15699;SDS011;7950;42.744;23.174;2022-10-30T10:19:25;6.30;;;5.03;;
15699;SDS011;7950;42.744;23.174;2022-10-30T10:22:02;9.17;;;5.20;;
15699;SDS011;7950;42.744;23.174;2022-10-30T10:24:46;8.57;;;7.13;;
15699;SDS011;7950;42.744;23.174;2022-10-30T10:27:17;7.80;;;5.50;;
15699;SDS011;7950;42.744;23.174;2022-10-30T10:30:16;7.63;;;5.10;;
15699;SDS011;7950;42.744;23.174;2022-10-30T10:33:00;7.60;;;4.90;;
15699;SDS011;7950;42.744;23.174;2022-10-30T10:36:10;6.83;;;4.67;;
15699;SDS011;7950;42.744;23.174;2022-10-30T10:38:55;8.50;;;4.63;;
15699;SDS011;7950;42.744;23.174;2022-10-30T10:41:42;5.83;;;4.03;;
15699;SDS011;7950;42.744;23.174;2022-10-30T10:44:28;4.90;;;4.37;;
15699;SDS011;7950;42.744;23.174;2022-10-30T10:47:17;7.03;;;4.20;;
15699;SDS011;7950;42.744;23.174;2022-10-30T10:50:09;7.97;;;4.40;;
15699;SDS011;7950;42.744;23.174;2022-10-30T10:52:50;4.73;;;4.30;;
15699;SDS011;7950;42.744;23.174;2022-10-30T10:55:27;6.50;;;4.77;;
15699;SDS011;7950;42.744;23.174;2022-10-30T10:58:04;6.43;;;5.13;;
15699;SDS011;7950;42.744;23.174;2022-10-30T11:00:45;6.80;;;4.40;;
15699;SDS011;7950;42.744;23.174;2022-10-30T11:03:15;5.83;;;4.20;;
15699;SDS011;7950;42.744;23.174;2022-10-30T11:05:50;4.30;;;3.90;;
15699;SDS011;7950;42.744;23.174;2022-10-30T11:08:25;6.20;;;3.73;;
15699;SDS011;7950;42.744;23.174;2022-10-30T11:10:56;6.63;;;3.83;;
15699;SDS011;7950;42.744;23.174;2022-10-30T11:13:28;6.87;;;4.10;;
15699;SDS011;7950;42.744;23.174;2022-10-30T11:16:03;4.33;;;3.33;;
15699;SDS011;7950;42.744;23.174;2022-10-30T11:18:45;9.60;;;5.47;;
15699;SDS011;7950;42.744;23.174;2022-10-30T11:21:18;5.67;;;4.33;;
15699;SDS011;7950;42.744;23.174;2022-10-30T11:23:52;5.33;;;3.90;;
15699;SDS011;7950;42.744;23.174;2022-10-30T11:26:25;4.47;;;3.90;;
15699;SDS011;7950;42.744;23.174;2022-10-30T11:28:59;6.10;;;4.40;;
15699;SDS011;7950;42.744;23.174;2022-10-30T11:31:33;4.67;;;3.90;;
15699;SDS011;7950;42.744;23.174;2022-10-30T11:34:12;34.90;;;5.33;;
15699;SDS011;7950;42.744;23.174;2022-10-30T11:36:51;6.53;;;3.80;;
15699;SDS011;7950;42.744;23.174;2022-10-30T11:39:25;4.83;;;3.47;;
15699;SDS011;7950;42.744;23.174;2022-10-30T11:41:55;3.20;;;2.90;;
15699;SDS011;7950;42.744;23.174;2022-10-30T11:47:21;5.07;;;2.60;;
15699;SDS011;7950;42.744;23.174;2022-10-30T11:49:58;3.43;;;2.37;;
15699;SDS011;7950;42.744;23.174;2022-10-30T11:52:34;2.77;;;2.30;;
15699;SDS011;7950;42.744;23.174;2022-10-30T11:55:12;2.67;;;2.00;;
15699;SDS011;7950;42.744;23.174;2022-10-30T11:57:45;6.13;;;2.40;;
15699;SDS011;7950;42.744;23.174;2022-10-30T12:00:18;7.87;;;2.30;;
15699;SDS011;7950;42.744;23.174;2022-10-30T12:02:49;5.13;;;2.10;;
15699;SDS011;7950;42.744;23.174;2022-10-30T12:05:28;5.13;;;2.70;;
15699;SDS011;7950;42.744;23.174;2022-10-30T12:10:59;2.87;;;1.90;;
15699;SDS011;7950;42.744;23.174;2022-10-30T12:13:40;3.60;;;2.10;;
15699;SDS011;7950;42.744;23.174;2022-10-30T12:16:13;14.60;;;2.87;;
15699;SDS011;7950;42.744;23.174;2022-10-30T12:21:35;6.30;;;2.40;;
15699;SDS011;7950;42.744;23.174;2022-10-30T12:24:11;4.83;;;2.50;;
15699;SDS011;7950;42.744;23.174;2022-10-30T12:26:49;5.97;;;2.30;;
15699;SDS011;7950;42.744;23.174;2022-10-30T12:29:22;2.73;;;2.00;;
15699;SDS011;7950;42.744;23.174;2022-10-30T12:32:25;6.33;;;2.87;;
15699;SDS011;7950;42.744;23.174;2022-10-30T12:35:07;4.50;;;2.10;;
15699;SDS011;7950;42.744;23.174;2022-10-30T12:37:48;4.50;;;2.40;;
15699;SDS011;7950;42.744;23.174;2022-10-30T12:40:22;4.50;;;2.10;;
15699;SDS011;7950;42.744;23.174;2022-10-30T12:42:58;6.03;;;3.07;;
15699;SDS011;7950;42.744;23.174;2022-10-30T12:45:36;3.60;;;2.07;;
15699;SDS011;7950;42.744;23.174;2022-10-30T12:48:11;4.07;;;2.43;;
15699;SDS011;7950;42.744;23.174;2022-10-30T12:50:51;4.57;;;2.00;;
15699;SDS011;7950;42.744;23.174;2022-10-30T12:53:37;4.13;;;2.10;;
15699;SDS011;7950;42.744;23.174;2022-10-30T12:56:15;5.67;;;2.00;;
15699;SDS011;7950;42.744;23.174;2022-10-30T12:58:55;5.00;;;2.63;;
15699;SDS011;7950;42.744;23.174;2022-10-30T13:01:47;4.97;;;1.90;;
15699;SDS011;7950;42.744;23.174;2022-10-30T13:04:24;4.90;;;2.03;;
15699;SDS011;7950;42.744;23.174;2022-10-30T13:07:02;8.23;;;1.90;;
15699;SDS011;7950;42.744;23.174;2022-10-30T13:09:41;5.53;;;2.33;;
15699;SDS011;7950;42.744;23.174;2022-10-30T13:12:29;5.87;;;1.97;;
15699;SDS011;7950;42.744;23.174;2022-10-30T13:15:04;7.30;;;2.13;;
15699;SDS011;7950;42.744;23.174;2022-10-30T13:17:44;6.17;;;1.97;;
15699;SDS011;7950;42.744;23.174;2022-10-30T13:20:13;6.37;;;2.40;;
15699;SDS011;7950;42.744;23.174;2022-10-30T13:22:44;4.63;;;2.10;;
15699;SDS011;7950;42.744;23.174;2022-10-30T13:25:19;5.53;;;2.33;;
15699;SDS011;7950;42.744;23.174;2022-10-30T13:27:59;3.57;;;2.13;;
15699;SDS011;7950;42.744;23.174;2022-10-30T13:30:42;8.00;;;2.10;;
15699;SDS011;7950;42.744;23.174;2022-10-30T13:37:00;8.37;;;3.60;;
15699;SDS011;7950;42.744;23.174;2022-10-30T13:39:35;5.60;;;3.27;;
15699;SDS011;7950;42.744;23.174;2022-10-30T13:42:22;6.47;;;4.17;;
15699;SDS011;7950;42.744;23.174;2022-10-30T13:45:10;6.37;;;4.23;;
15699;SDS011;7950;42.744;23.174;2022-10-30T13:48:12;7.10;;;3.43;;
15699;SDS011;7950;42.744;23.174;2022-10-30T13:51:02;4.97;;;2.97;;
15699;SDS011;7950;42.744;23.174;2022-10-30T13:54:03;4.90;;;3.60;;
15699;SDS011;7950;42.744;23.174;2022-10-30T13:56:41;4.00;;;2.50;;
15699;SDS011;7950;42.744;23.174;2022-10-30T13:59:19;5.57;;;2.70;;
15699;SDS011;7950;42.744;23.174;2022-10-30T14:02:19;4.90;;;3.23;;
15699;SDS011;7950;42.744;23.174;2022-10-30T14:05:14;4.23;;;2.97;;
15699;SDS011;7950;42.744;23.174;2022-10-30T14:07:58;5.17;;;3.07;;
15699;SDS011;7950;42.744;23.174;2022-10-30T14:10:42;5.23;;;3.90;;
15699;SDS011;7950;42.744;23.174;2022-10-30T14:13:20;7.93;;;4.67;;
15699;SDS011;7950;42.744;23.174;2022-10-30T14:15:54;7.53;;;4.20;;
15699;SDS011;7950;42.744;23.174;2022-10-30T14:18:28;10.83;;;7.00;;
15699;SDS011;7950;42.744;23.174;2022-10-30T14:21:36;5.90;;;4.20;;
15699;SDS011;7950;42.744;23.174;2022-10-30T14:24:14;6.17;;;3.30;;
15699;SDS011;7950;42.744;23.174;2022-10-30T14:26:50;4.33;;;2.87;;
15699;SDS011;7950;42.744;23.174;2022-10-30T14:29:39;4.63;;;3.63;;
15699;SDS011;7950;42.744;23.174;2022-10-30T14:32:31;3.90;;;3.50;;
15699;SDS011;7950;42.744;23.174;2022-10-30T14:35:26;5.37;;;3.30;;
15699;SDS011;7950;42.744;23.174;2022-10-30T14:41:16;6.73;;;3.03;;
15699;SDS011;7950;42.744;23.174;2022-10-30T14:50:50;8.77;;;4.50;;
15699;SDS011;7950;42.744;23.174;2022-10-30T14:53:30;5.57;;;3.90;;
15699;SDS011;7950;42.744;23.174;2022-10-30T14:56:27;4.50;;;3.70;;
15699;SDS011;7950;42.744;23.174;2022-10-30T14:59:16;10.77;;;4.37;;
15699;SDS011;7950;42.744;23.174;2022-10-30T15:05:26;9.17;;;6.50;;
15699;SDS011;7950;42.744;23.174;2022-10-30T15:08:13;8.20;;;5.73;;
15699;SDS011;7950;42.744;23.174;2022-10-30T15:11:12;10.63;;;5.47;;
15699;SDS011;7950;42.744;23.174;2022-10-30T15:14:15;7.13;;;5.37;;
15699;SDS011;7950;42.744;23.174;2022-10-30T15:17:22;12.87;;;10.07;;
15699;SDS011;7950;42.744;23.174;2022-10-30T15:19:57;11.90;;;7.40;;
15699;SDS011;7950;42.744;23.174;2022-10-30T15:22:30;10.10;;;6.80;;
15699;SDS011;7950;42.744;23.174;2022-10-30T15:25:01;12.23;;;6.33;;
15699;SDS011;7950;42.744;23.174;2022-10-30T15:27:34;8.37;;;5.20;;
15699;SDS011;7950;42.744;23.174;2022-10-30T15:30:13;8.87;;;4.87;;
15699;SDS011;7950;42.744;23.174;2022-10-30T15:32:45;6.37;;;5.10;;
15699;SDS011;7950;42.744;23.174;2022-10-30T15:35:15;6.80;;;5.00;;
15699;SDS011;7950;42.744;23.174;2022-10-30T15:40:34;7.17;;;5.13;;
15699;SDS011;7950;42.744;23.174;2022-10-30T15:43:06;8.73;;;5.20;;
15699;SDS011;7950;42.744;23.174;2022-10-30T15:48:44;7.20;;;5.53;;
15699;SDS011;7950;42.744;23.174;2022-10-30T15:51:15;7.73;;;4.43;;
15699;SDS011;7950;42.744;23.174;2022-10-30T15:53:48;7.20;;;5.20;;
15699;SDS011;7950;42.744;23.174;2022-10-30T15:56:21;7.17;;;5.20;;
15699;SDS011;7950;42.744;23.174;2022-10-30T15:58:57;8.93;;;5.20;;
15699;SDS011;7950;42.744;23.174;2022-10-30T16:01:30;10.37;;;5.83;;
15699;SDS011;7950;42.744;23.174;2022-10-30T16:04:02;7.77;;;5.07;;
15699;SDS011;7950;42.744;23.174;2022-10-30T16:06:31;10.77;;;6.37;;
15699;SDS011;7950;42.744;23.174;2022-10-30T16:09:02;10.50;;;6.43;;
15699;SDS011;7950;42.744;23.174;2022-10-30T16:11:42;13.43;;;7.60;;